Time;durP1;ratioP1;P1;durP2;ratioP2;P2;SDS_P1;SDS_P2;PMS_P1;PMS_P2;Temp;Humidity;BMP_temperature;BMP_pressure;BME280_temperature;BME280_humidity;BME280_pressure;Samples;Min_cycle;Max_cycle;Signal;HPM_P1;HPM_P2
2022/11/02 00:01:13;;;;;;;8.40;8.20;;;9.40;99.90;;;;;;5119681;28;20241;-79
2022/11/02 00:03:41;;;;;;;8.43;8.23;;;9.30;99.90;;;;;;5120113;28;20250;-79
2022/11/02 00:06:08;;;;;;;8.60;8.40;;;9.20;99.90;;;;;;5119923;28;20705;-78
2022/11/02 00:08:37;;;;;;;8.30;8.10;;;9.10;99.90;;;;;;5120383;28;20284;-79
2022/11/02 00:11:05;;;;;;;8.57;8.37;;;9.00;99.90;;;;;;5125978;28;20301;-78
2022/11/02 00:13:32;;;;;;;8.43;8.23;;;8.90;99.90;;;;;;5127102;28;20339;-78
2022/11/02 00:16:02;;;;;;;8.20;8.00;;;8.90;99.90;;;;;;5131349;28;20270;-78
2022/11/02 00:18:30;;;;;;;8.40;8.20;;;8.90;99.90;;;;;;5126444;28;20283;-78
2022/11/02 00:20:58;;;;;;;8.30;8.10;;;8.80;99.90;;;;;;5130034;27;20295;-78
2022/11/02 00:23:25;;;;;;;8.30;8.10;;;8.80;99.90;;;;;;5120901;28;20738;-78
2022/11/02 00:25:56;;;;;;;8.20;8.00;;;8.80;99.90;;;;;;5121050;28;20236;-78
2022/11/02 00:28:23;;;;;;;8.37;8.17;;;8.80;99.90;;;;;;5119743;28;20231;-78
2022/11/02 00:30:51;;;;;;;8.40;8.20;;;8.80;99.90;;;;;;5118746;27;20286;-79
2022/11/02 00:33:19;;;;;;;8.50;8.30;;;8.80;99.90;;;;;;5118777;28;20262;-79
2022/11/02 00:35:46;;;;;;;8.30;8.10;;;8.80;99.90;;;;;;5119068;28;20320;-79
2022/11/02 00:38:14;;;;;;;8.30;8.10;;;8.80;99.90;;;;;;5118530;28;20236;-78
2022/11/02 00:40:41;;;;;;;8.00;7.80;;;8.90;99.90;;;;;;5118432;28;20236;-78
2022/11/02 00:43:10;;;;;;;8.37;8.17;;;8.90;99.90;;;;;;5119450;28;20308;-78
2022/11/02 00:45:38;;;;;;;8.30;8.10;;;8.90;99.90;;;;;;5132036;28;20225;-78
2022/11/02 00:48:06;;;;;;;8.20;8.00;;;9.00;99.90;;;;;;5132953;28;20269;-78
2022/11/02 00:50:34;;;;;;;8.20;8.00;;;8.90;99.90;;;;;;5131045;27;20233;-80
2022/11/02 00:53:01;;;;;;;8.20;8.00;;;9.00;99.90;;;;;;5121246;28;20232;-79
2022/11/02 00:55:29;;;;;;;8.60;8.40;;;8.90;99.90;;;;;;5119350;28;20229;-80
2022/11/02 00:57:57;;;;;;;8.40;8.20;;;8.90;99.90;;;;;;5119023;28;20232;-78
2022/11/02 01:00:26;;;;;;;8.40;8.20;;;8.90;99.90;;;;;;5118934;28;20300;-78
2022/11/02 01:02:53;;;;;;;8.80;8.50;;;8.90;99.90;;;;;;5118944;28;20233;-78
2022/11/02 01:05:21;;;;;;;8.60;8.40;;;8.90;99.90;;;;;;5118647;28;20236;-78
2022/11/02 01:07:48;;;;;;;8.30;8.10;;;8.90;99.90;;;;;;5118338;28;20224;-78
2022/11/02 01:10:16;;;;;;;8.20;8.00;;;8.90;99.90;;;;;;5118563;28;21042;-79
2022/11/02 01:12:43;;;;;;;8.50;8.30;;;8.90;99.90;;;;;;5119930;28;20233;-78
2022/11/02 01:15:11;;;;;;;8.83;8.53;;;8.90;99.90;;;;;;5118624;28;20239;-79
2022/11/02 01:17:40;;;;;;;9.00;8.70;;;8.90;99.90;;;;;;5118862;28;20239;-79
2022/11/02 01:20:09;;;;;;;8.80;8.50;;;8.90;99.90;;;;;;5123302;28;20327;-78
2022/11/02 01:22:36;;;;;;;8.50;8.30;;;8.90;99.90;;;;;;5125903;28;20239;-78
2022/11/02 01:25:05;;;;;;;8.50;8.30;;;8.90;99.90;;;;;;5125445;28;20285;-79
2022/11/02 01:27:32;;;;;;;8.60;8.40;;;8.90;99.90;;;;;;5123172;28;20324;-79
2022/11/02 01:29:59;;;;;;;8.53;8.33;;;8.90;99.90;;;;;;5117964;28;20703;-78
2022/11/02 01:32:30;;;;;;;8.40;8.20;;;9.00;99.90;;;;;;5127115;28;20335;-78
2022/11/02 01:34:59;;;;;;;8.50;8.30;;;9.00;99.90;;;;;;5137126;28;20258;-77
2022/11/02 01:37:26;;;;;;;8.73;8.50;;;9.10;99.90;;;;;;5136739;28;20261;-77
2022/11/02 01:39:53;;;;;;;8.40;8.20;;;9.10;99.90;;;;;;5135842;28;20256;-77
2022/11/02 01:42:23;;;;;;;8.60;8.40;;;9.10;99.90;;;;;;5136192;28;20240;-77
2022/11/02 01:44:51;;;;;;;8.50;8.30;;;9.10;99.90;;;;;;5128462;28;20227;-78
2022/11/02 01:47:24;;;;;;;8.40;8.20;;;9.20;99.90;;;;;;5121146;28;20237;-77
2022/11/02 01:49:57;;;;;;;8.53;8.33;;;9.10;99.90;;;;;;5119275;28;20304;-78
2022/11/02 01:52:33;;;;;;;8.50;8.30;;;9.20;99.90;;;;;;5119491;28;20229;-79
2022/11/02 01:55:06;;;;;;;8.60;8.40;;;9.20;99.90;;;;;;5118404;28;20236;-79
2022/11/02 01:57:35;;;;;;;8.23;8.03;;;9.20;99.90;;;;;;5117710;28;20319;-79
2022/11/02 02:00:09;;;;;;;8.50;8.30;;;9.30;99.90;;;;;;5117852;28;20263;-79
2022/11/02 02:02:41;;;;;;;8.20;8.00;;;9.30;99.90;;;;;;5119706;27;20268;-78
2022/11/02 02:05:11;;;;;;;8.30;8.10;;;9.30;99.90;;;;;;5121444;28;20233;-79
2022/11/02 02:07:41;;;;;;;8.27;8.07;;;9.20;99.90;;;;;;5120682;28;20332;-79
2022/11/02 02:10:09;;;;;;;8.30;8.10;;;9.20;99.90;;;;;;5121153;27;20319;-79
2022/11/02 02:12:40;;;;;;;8.30;8.10;;;9.30;99.90;;;;;;5121648;28;20331;-78
2022/11/02 02:15:09;;;;;;;8.33;8.13;;;9.30;99.90;;;;;;5121554;28;20598;-79
2022/11/02 02:17:47;;;;;;;8.23;8.03;;;9.30;99.90;;;;;;5121904;28;20245;-79
2022/11/02 02:20:31;;;;;;;8.40;8.20;;;9.30;99.90;;;;;;5120786;27;20311;-80
2022/11/02 02:23:23;;;;;;;8.40;8.20;;;9.30;99.90;;;;;;5121385;28;20229;-79
2022/11/02 02:26:29;;;;;;;8.40;8.20;;;9.30;99.90;;;;;;5120889;28;20227;-78
2022/11/02 02:29:02;;;;;;;8.60;8.40;;;9.30;99.90;;;;;;5120882;28;20312;-79
2022/11/02 02:31:37;;;;;;;8.40;8.20;;;9.20;99.90;;;;;;5120527;27;20237;-79
2022/11/02 02:34:14;;;;;;;8.40;8.20;;;9.20;99.90;;;;;;5120982;28;20228;-79
2022/11/02 02:36:50;;;;;;;8.50;8.30;;;9.20;99.90;;;;;;5120847;28;20220;-79
2022/11/02 02:39:25;;;;;;;8.50;8.30;;;9.20;99.90;;;;;;5120394;28;20262;-79
2022/11/02 02:42:00;;;;;;;8.50;8.30;;;9.20;99.90;;;;;;5120993;28;20234;-79
2022/11/02 02:44:35;;;;;;;8.37;8.17;;;9.10;99.90;;;;;;5121397;28;20232;-78
2022/11/02 02:47:08;;;;;;;8.30;8.10;;;9.10;99.90;;;;;;5120712;28;20343;-79
2022/11/02 02:49:39;;;;;;;8.40;8.20;;;9.10;99.90;;;;;;5120730;27;20229;-80
2022/11/02 02:52:08;;;;;;;8.40;8.20;;;9.10;99.90;;;;;;5121086;28;20315;-79
2022/11/02 02:54:40;;;;;;;8.60;8.40;;;9.00;99.90;;;;;;5121085;28;20221;-79
2022/11/02 02:57:12;;;;;;;8.50;8.30;;;9.00;99.90;;;;;;5120480;28;20272;-79
2022/11/02 02:59:43;;;;;;;8.20;8.00;;;9.00;99.90;;;;;;5119694;28;20306;-79
2022/11/02 03:02:18;;;;;;;8.60;8.40;;;8.90;99.90;;;;;;5121930;28;20225;-78
2022/11/02 03:04:45;;;;;;;8.43;8.23;;;9.00;99.90;;;;;;5121034;28;20267;-79
2022/11/02 03:07:18;;;;;;;8.90;8.60;;;8.90;99.90;;;;;;5120048;28;20236;-80
2022/11/02 03:09:51;;;;;;;8.67;8.47;;;8.90;99.90;;;;;;5120115;27;20284;-79
2022/11/02 03:12:32;;;;;;;8.60;8.40;;;8.90;99.90;;;;;;5120760;28;20315;-79
2022/11/02 03:15:11;;;;;;;8.77;8.53;;;8.90;99.90;;;;;;5120370;28;20367;-79
2022/11/02 03:17:57;;;;;;;8.70;8.50;;;8.90;99.90;;;;;;5120501;28;20238;-79
2022/11/02 03:20:30;;;;;;;8.60;8.40;;;8.80;99.90;;;;;;5119050;28;20236;-79
2022/11/02 03:23:09;;;;;;;8.70;8.50;;;8.80;99.90;;;;;;5121502;28;20300;-79
2022/11/02 03:25:47;;;;;;;8.73;8.50;;;8.80;99.90;;;;;;5121805;28;20604;-79
2022/11/02 03:28:22;;;;;;;8.50;8.30;;;8.70;99.90;;;;;;5121882;28;20290;-79
2022/11/02 03:31:05;;;;;;;8.60;8.40;;;8.70;99.90;;;;;;5128969;27;20240;-79
2022/11/02 03:33:36;;;;;;;8.70;8.50;;;8.60;99.90;;;;;;5126236;27;20232;-79
2022/11/02 03:36:10;;;;;;;9.00;8.70;;;8.60;99.90;;;;;;5119247;28;20337;-79
2022/11/02 03:38:44;;;;;;;8.50;8.30;;;8.50;99.90;;;;;;5118667;28;20233;-79
2022/11/02 03:41:12;;;;;;;8.70;8.47;;;8.40;99.90;;;;;;5118924;28;20238;-79
2022/11/02 03:43:42;;;;;;;8.50;8.30;;;8.40;99.90;;;;;;5122322;28;20283;-80
2022/11/02 03:46:13;;;;;;;8.60;8.40;;;8.40;99.90;;;;;;5125255;28;20328;-79
2022/11/02 03:48:45;;;;;;;8.47;8.27;;;8.40;99.90;;;;;;5122763;28;20280;-79
2022/11/02 03:51:17;;;;;;;8.50;8.30;;;8.30;99.90;;;;;;5123265;27;20225;-79
2022/11/02 03:53:51;;;;;;;8.43;8.23;;;8.30;99.90;;;;;;5125825;28;20263;-78
2022/11/02 03:56:25;;;;;;;8.50;8.30;;;8.30;99.90;;;;;;5122678;28;20228;-80
2022/11/02 03:58:52;;;;;;;8.73;8.53;;;8.30;99.90;;;;;;5121836;28;20312;-79
2022/11/02 04:01:22;;;;;;;8.40;8.20;;;8.20;99.90;;;;;;5120871;27;20235;-79
2022/11/02 04:03:49;;;;;;;8.50;8.30;;;8.20;99.90;;;;;;5121064;28;20238;-79
2022/11/02 04:06:17;;;;;;;8.83;8.57;;;8.10;99.90;;;;;;5121662;28;20228;-80
2022/11/02 04:08:47;;;;;;;8.60;8.40;;;8.10;99.90;;;;;;5120106;28;20229;-79
2022/11/02 04:16:47;;;;;;;8.33;8.13;;;8.10;99.90;;;;;;5121496;28;20280;-79
2022/11/02 04:19:29;;;;;;;8.60;8.40;;;8.10;99.90;;;;;;5120274;27;20251;-79
2022/11/02 04:27:42;;;;;;;8.50;8.30;;;8.00;99.90;;;;;;5078039;28;20260;-79
2022/11/02 04:30:11;;;;;;;8.60;8.40;;;8.00;99.90;;;;;;5103781;27;20237;-79
2022/11/02 04:35:27;;;;;;;8.50;8.30;;;7.90;99.90;;;;;;5121980;28;20232;-79
2022/11/02 04:40:39;;;;;;;8.37;8.17;;;7.80;99.90;;;;;;5120547;28;20236;-79
2022/11/02 04:43:07;;;;;;;8.50;8.30;;;7.80;99.90;;;;;;5120705;27;20225;-79
2022/11/02 04:45:35;;;;;;;8.60;8.40;;;7.80;99.90;;;;;;5120693;28;20236;-79
2022/11/02 04:48:06;;;;;;;8.77;8.57;;;7.80;99.90;;;;;;5127413;28;20292;-79
2022/11/02 04:50:34;;;;;;;8.70;8.50;;;7.80;99.90;;;;;;5136096;27;20228;-79
2022/11/02 04:53:05;;;;;;;8.70;8.50;;;7.80;99.90;;;;;;5136793;28;20252;-79
2022/11/02 04:55:34;;;;;;;8.90;8.60;;;7.80;99.90;;;;;;5130903;28;20241;-79
2022/11/02 04:58:01;;;;;;;8.80;8.50;;;7.90;99.90;;;;;;5122672;28;20228;-79
2022/11/02 05:00:29;;;;;;;9.00;8.70;;;7.90;99.90;;;;;;5121893;27;20324;-80
2022/11/02 05:02:56;;;;;;;8.50;8.30;;;7.90;99.90;;;;;;5121526;28;20303;-79
2022/11/02 05:05:25;;;;;;;8.40;8.20;;;8.00;99.90;;;;;;5121948;28;20228;-79
2022/11/02 05:07:53;;;;;;;8.40;8.20;;;8.10;99.90;;;;;;5121759;27;20235;-79
2022/11/02 05:10:20;;;;;;;8.33;8.13;;;8.10;99.90;;;;;;5121508;27;20627;-79
2022/11/02 05:12:48;;;;;;;8.30;8.10;;;8.10;99.90;;;;;;5129495;28;20225;-79
2022/11/02 05:15:15;;;;;;;8.60;8.40;;;8.10;99.90;;;;;;5123003;28;20257;-79
2022/11/02 05:17:43;;;;;;;8.37;8.17;;;8.10;99.90;;;;;;5121047;28;20293;-79
2022/11/02 05:20:11;;;;;;;8.47;8.27;;;8.20;99.90;;;;;;5139625;27;20285;-79
2022/11/02 05:22:42;;;;;;;8.60;8.40;;;8.20;99.90;;;;;;5140241;27;20259;-78
2022/11/02 05:25:10;;;;;;;8.40;8.20;;;8.20;99.90;;;;;;5140004;27;20216;-78
2022/11/02 05:27:37;;;;;;;8.40;8.20;;;8.30;99.90;;;;;;5139310;27;20246;-79
2022/11/02 05:30:07;;;;;;;8.27;8.07;;;8.30;99.90;;;;;;5136683;27;20233;-79
2022/11/02 05:32:34;;;;;;;8.30;8.10;;;8.30;99.90;;;;;;5125288;28;20285;-80
2022/11/02 05:35:02;;;;;;;8.20;8.00;;;8.30;99.90;;;;;;5122961;28;20237;-80
2022/11/02 05:37:29;;;;;;;8.00;7.80;;;8.40;99.90;;;;;;5123182;27;20231;-79
2022/11/02 05:39:58;;;;;;;8.00;7.80;;;8.40;99.90;;;;;;5125235;27;20228;-81
2022/11/02 05:42:26;;;;;;;7.90;7.70;;;8.50;99.90;;;;;;5153290;22;20236;-82
2022/11/02 05:44:54;;;;;;;7.87;7.67;;;8.50;99.90;;;;;;5146300;27;20226;-82
2022/11/02 05:47:23;;;;;;;8.13;7.93;;;8.50;99.90;;;;;;5149001;27;20271;-82
2022/11/02 05:49:56;;;;;;;8.97;8.70;;;8.50;99.90;;;;;;5144002;27;20322;-82
2022/11/02 05:52:24;;;;;;;8.40;8.20;;;8.50;99.90;;;;;;5141947;27;20247;-81
2022/11/02 05:54:53;;;;;;;8.70;8.50;;;8.50;99.90;;;;;;5140455;28;20224;-82
2022/11/02 05:57:32;;;;;;;8.57;8.37;;;8.50;99.90;;;;;;5127639;28;20268;-82
2022/11/02 06:06:41;;;;;;;9.50;9.20;;;8.60;99.90;;;;;;5129684;28;20229;-89
2022/11/02 06:09:18;;;;;;;9.10;8.80;;;8.70;99.90;;;;;;5125178;28;20244;-86
2022/11/02 06:11:45;;;;;;;9.10;8.80;;;8.70;99.90;;;;;;5134640;28;20224;-85
2022/11/02 06:14:17;;;;;;;9.00;8.70;;;8.70;99.90;;;;;;5128168;28;20224;-86
2022/11/02 06:16:52;;;;;;;9.07;8.77;;;8.70;99.90;;;;;;5124631;28;20258;-86
2022/11/02 06:19:23;;;;;;;8.93;8.67;;;8.70;99.90;;;;;;5123265;28;20235;-86
2022/11/02 06:21:51;;;;;;;9.20;8.90;;;8.70;99.90;;;;;;5123065;27;20225;-86
2022/11/02 06:24:21;;;;;;;8.60;8.40;;;8.70;99.90;;;;;;5123188;28;20225;-86
2022/11/02 06:26:50;;;;;;;8.70;8.50;;;8.70;99.90;;;;;;5123912;28;20243;-86
2022/11/02 06:29:22;;;;;;;8.80;8.60;;;8.70;99.90;;;;;;5123736;28;20233;-86
2022/11/02 06:31:50;;;;;;;9.20;8.90;;;8.70;99.90;;;;;;5123680;27;20220;-86
2022/11/02 06:34:18;;;;;;;8.67;8.47;;;8.60;99.90;;;;;;5123713;28;20229;-86
2022/11/02 06:36:47;;;;;;;8.70;8.50;;;8.70;99.90;;;;;;5124364;28;20237;-87
2022/11/02 06:39:17;;;;;;;9.10;8.80;;;8.70;99.90;;;;;;5124590;28;20278;-89
2022/11/02 06:41:46;;;;;;;8.60;8.40;;;8.70;99.90;;;;;;5122706;27;20236;-88
2022/11/02 06:44:19;;;;;;;9.10;8.80;;;8.70;99.90;;;;;;5127235;28;20304;-87
2022/11/02 06:46:57;;;;;;;9.00;8.70;;;8.80;99.90;;;;;;5129055;28;20235;-88
2022/11/02 06:49:25;;;;;;;9.17;8.87;;;8.80;99.90;;;;;;5130812;27;20234;-88
2022/11/02 06:51:54;;;;;;;9.20;8.90;;;8.90;99.90;;;;;;5125723;27;20221;-89
2022/11/02 06:54:34;;;;;;;9.10;8.80;;;8.90;99.90;;;;;;5123368;28;20252;-92
2022/11/02 06:57:02;;;;;;;9.30;9.00;;;8.90;99.90;;;;;;5127970;28;20235;-89
2022/11/02 06:59:32;;;;;;;9.47;9.17;;;9.00;99.90;;;;;;5123484;28;20263;-89
2022/11/02 07:04:41;;;;;;;9.00;8.70;;;9.10;99.90;;;;;;5202194;22;20231;-85
2022/11/02 07:07:16;;;;;;;9.20;8.90;;;9.10;99.90;;;;;;5168089;27;20257;-86
2022/11/02 07:09:46;;;;;;;9.40;9.10;;;9.20;99.90;;;;;;5164183;27;20227;-89
2022/11/02 07:12:17;;;;;;;8.90;8.70;;;9.30;99.90;;;;;;5164168;27;20234;-88
2022/11/02 07:14:45;;;;;;;9.00;8.70;;;9.30;99.90;;;;;;5165640;27;20251;-89
2022/11/02 07:17:14;;;;;;;8.80;8.60;;;9.40;99.90;;;;;;5164319;27;20224;-90
2022/11/02 07:19:52;;;;;;;9.10;8.80;;;9.40;99.90;;;;;;5164332;27;20238;-88
2022/11/02 07:22:23;;;;;;;9.10;8.80;;;9.40;99.90;;;;;;5163643;27;20248;-89
2022/11/02 07:24:51;;;;;;;9.30;9.00;;;9.50;99.90;;;;;;5164239;27;20220;-89
2022/11/02 07:27:20;;;;;;;9.47;9.17;;;9.50;99.90;;;;;;5164488;27;20227;-89
2022/11/02 07:29:50;;;;;;;9.37;9.07;;;9.50;99.90;;;;;;5167025;27;20238;-89
2022/11/02 07:32:21;;;;;;;8.90;8.70;;;9.50;99.90;;;;;;5168191;27;20219;-88
2022/11/02 07:34:59;;;;;;;8.83;8.63;;;9.50;99.90;;;;;;5168357;27;20241;-89
2022/11/02 07:37:27;;;;;;;8.60;8.40;;;9.50;99.90;;;;;;5173897;27;20318;-88
2022/11/02 07:39:57;;;;;;;8.43;8.23;;;9.50;99.90;;;;;;5179363;27;20235;-88
2022/11/02 07:42:26;;;;;;;8.70;8.50;;;9.50;99.90;;;;;;5181550;27;20325;-88
2022/11/02 07:44:55;;;;;;;8.87;8.67;;;9.50;99.90;;;;;;5180981;27;20207;-88
2022/11/02 07:47:27;;;;;;;8.80;8.60;;;9.50;99.90;;;;;;5180817;27;20288;-87
2022/11/02 07:49:59;;;;;;;8.60;8.40;;;9.60;99.90;;;;;;5182785;27;20238;-83
2022/11/02 07:52:27;;;;;;;8.80;8.60;;;9.60;99.90;;;;;;5182638;27;20211;-83
2022/11/02 07:54:55;;;;;;;8.77;8.57;;;9.60;99.90;;;;;;5182829;27;20211;-84
2022/11/02 07:57:24;;;;;;;8.97;8.70;;;9.70;99.90;;;;;;5180381;27;20231;-84
2022/11/02 07:59:56;;;;;;;8.77;8.57;;;9.80;99.90;;;;;;5176250;27;20196;-84
2022/11/02 08:02:24;;;;;;;8.83;8.63;;;9.90;99.90;;;;;;5164911;27;20236;-85
2022/11/02 08:04:53;;;;;;;8.53;8.33;;;10.00;99.90;;;;;;5166177;27;20213;-83
2022/11/02 08:07:25;;;;;;;8.60;8.40;;;10.10;99.90;;;;;;5178265;27;20227;-83
2022/11/02 08:09:55;;;;;;;8.33;8.13;;;10.20;99.90;;;;;;5179554;27;20290;-84
2022/11/02 08:12:23;;;;;;;7.90;7.70;;;10.20;99.90;;;;;;5170712;27;20219;-84
2022/11/02 08:14:51;;;;;;;7.80;7.60;;;10.40;99.90;;;;;;5163832;27;20286;-84
2022/11/02 08:17:20;;;;;;;8.10;7.90;;;10.50;99.90;;;;;;5154337;27;20232;-83
2022/11/02 08:19:50;;;;;;;8.40;8.20;;;10.60;99.90;;;;;;5149451;27;20235;-83
2022/11/02 08:22:19;;;;;;;8.27;8.07;;;10.70;99.90;;;;;;5149348;27;20263;-83
2022/11/02 08:24:57;;;;;;;8.60;8.40;;;10.90;99.90;;;;;;5164485;27;20280;-84
2022/11/02 08:27:26;;;;;;;9.13;8.83;;;11.00;99.90;;;;;;5163491;27;20231;-84
2022/11/02 08:30:00;;;;;;;9.33;9.03;;;11.30;99.90;;;;;;5152234;27;20235;-84
2022/11/02 08:32:28;;;;;;;9.50;9.20;;;11.50;99.90;;;;;;5151548;27;20235;-84
2022/11/02 09:01:55;;;;;;;8.77;8.57;;;12.50;99.90;;;;;;4946979;28;20221;-88
2022/11/02 09:08:11;;;;;;;9.23;8.93;;;12.50;99.90;;;;;;5076524;27;20239;-85
2022/11/02 09:10:39;;;;;;;9.40;9.10;;;12.50;99.90;;;;;;5151752;27;20234;-85
2022/11/02 09:13:11;;;;;;;9.30;9.00;;;12.40;99.90;;;;;;5160851;27;20235;-85
2022/11/02 09:15:56;;;;;;;9.20;8.90;;;12.30;99.90;;;;;;5154886;27;20220;-86
2022/11/02 09:18:35;;;;;;;9.30;9.00;;;12.20;99.90;;;;;;5162821;27;20244;-81
2022/11/02 09:21:13;;;;;;;9.40;9.10;;;12.30;99.90;;;;;;5150472;27;20273;-84
2022/11/02 09:23:47;;;;;;;9.40;9.10;;;12.40;99.90;;;;;;5150703;27;20227;-86
2022/11/02 09:26:33;;;;;;;9.07;8.77;;;12.50;99.90;;;;;;5166256;27;20309;-86
2022/11/02 09:29:07;;;;;;;9.10;8.80;;;12.80;99.90;;;;;;5158433;27;20227;-85
2022/11/02 09:32:43;;;;;;;8.80;8.60;;;13.00;99.90;;;;;;5157533;27;20227;-87
2022/11/02 09:35:30;;;;;;;8.80;8.60;;;13.20;99.90;;;;;;5147514;27;20288;-84
2022/11/02 09:38:23;;;;;;;8.60;8.40;;;13.50;99.90;;;;;;5176554;27;20225;-86
2022/11/02 09:41:27;;;;;;;8.53;8.33;;;13.60;99.90;;;;;;5164507;27;20220;-84
2022/11/02 09:44:21;;;;;;;8.70;8.50;;;13.50;99.90;;;;;;5167554;27;20290;-83
2022/11/02 09:50:07;;;;;;;9.70;9.40;;;13.70;99.90;;;;;;5153394;27;20212;-83
2022/11/02 11:37:03;;;;;;;9.63;9.33;;;14.80;99.90;;;;;;5208410;22;20235;-83
2022/11/02 11:40:16;;;;;;;9.80;9.50;;;14.70;99.90;;;;;;5166211;27;20322;-83
2022/11/02 11:42:45;;;;;;;9.67;9.37;;;14.60;99.90;;;;;;5253577;22;20203;-86
2022/11/02 11:45:24;;;;;;;9.80;9.50;;;14.60;99.90;;;;;;5179296;27;20219;-86
2022/11/02 11:47:54;;;;;;;9.77;9.47;;;14.60;99.90;;;;;;5164251;27;20231;-85
2022/11/02 11:50:27;;;;;;;9.97;9.67;;;14.60;99.90;;;;;;5149601;27;20216;-85
2022/11/02 11:53:20;;;;;;;10.00;9.70;;;14.60;99.90;;;;;;5141412;27;20283;-85
2022/11/02 11:55:51;;;;;;;10.07;9.77;;;14.60;99.90;;;;;;5128178;28;20221;-87
2022/11/02 11:58:22;;;;;;;9.70;9.40;;;14.80;99.90;;;;;;5127524;28;20731;-88
2022/11/02 12:01:07;;;;;;;10.10;9.80;;;15.00;99.90;;;;;;5127552;28;20225;-87
2022/11/02 12:03:54;;;;;;;9.80;9.50;;;15.10;99.90;;;;;;5123944;27;20233;-88
2022/11/02 12:06:32;;;;;;;9.90;9.60;;;15.20;99.90;;;;;;5123565;28;20311;-86
2022/11/02 12:09:10;;;;;;;9.75;9.45;;;15.50;99.90;;;;;;5122707;27;20256;-86
2022/11/02 12:11:56;;;;;;;9.85;9.55;;;15.80;99.90;;;;;;5122151;28;20327;-86
2022/11/02 12:14:53;;;;;;;9.90;9.60;;;15.90;99.90;;;;;;5135900;27;20243;-90
2022/11/02 12:17:52;;;;;;;10.00;9.70;;;16.20;99.90;;;;;;5142203;27;20309;-86
2022/11/02 12:20:45;;;;;;;10.00;9.70;;;16.00;99.90;;;;;;5138733;27;20231;-85
2022/11/02 12:23:46;;;;;;;9.68;9.38;;;15.60;99.90;;;;;;5151217;27;20331;-84
2022/11/02 12:26:31;;;;;;;9.90;9.60;;;15.40;99.90;;;;;;5144486;27;20281;-85
2022/11/02 12:29:16;;;;;;;9.88;9.57;;;15.50;99.90;;;;;;5142979;27;20232;-85
2022/11/02 12:31:52;;;;;;;10.10;9.80;;;16.10;99.90;;;;;;5127212;27;20254;-85
2022/11/02 12:37:37;;;;;;;10.43;10.13;;;17.00;99.90;;;;;;5141218;27;20309;-86
2022/11/02 12:40:26;;;;;;;10.40;10.10;;;17.60;99.90;;;;;;5141689;27;20257;-84
2022/11/02 12:43:18;;;;;;;10.57;10.27;;;18.00;99.90;;;;;;5142393;27;20236;-84
2022/11/02 12:45:54;;;;;;;10.73;10.43;;;18.50;99.90;;;;;;5141791;27;20233;-84
2022/11/02 12:48:34;;;;;;;10.73;10.43;;;18.90;99.90;;;;;;5143987;27;20275;-83
2022/11/02 12:51:11;;;;;;;10.57;10.27;;;19.00;99.90;;;;;;5142983;27;20263;-85
2022/11/02 12:53:49;;;;;;;10.70;10.40;;;18.90;99.90;;;;;;5144248;27;20236;-84
2022/11/02 12:56:23;;;;;;;10.43;10.13;;;18.50;99.90;;;;;;5141069;27;20254;-85
2022/11/02 12:58:53;;;;;;;10.52;10.23;;;18.70;99.90;;;;;;5141148;27;20235;-86
2022/11/02 13:01:28;;;;;;;10.50;10.20;;;18.80;99.90;;;;;;5142147;27;20370;-85
2022/11/02 13:04:04;;;;;;;10.43;10.13;;;19.10;99.90;;;;;;5141938;27;20231;-86
2022/11/02 13:06:38;;;;;;;10.50;10.20;;;19.50;99.90;;;;;;5140904;27;20242;-86
2022/11/02 13:09:14;;;;;;;10.10;9.80;;;20.00;99.90;;;;;;5148049;27;20208;-83
2022/11/02 13:11:46;;;;;;;9.85;9.55;;;20.30;99.90;;;;;;5159116;27;20227;-85
2022/11/02 13:14:21;;;;;;;9.95;9.65;;;20.60;99.90;;;;;;5158022;27;20208;-85
2022/11/02 13:17:05;;;;;;;10.05;9.75;;;20.90;99.90;;;;;;5156806;27;20239;-85
2022/11/02 13:19:39;;;;;;;9.70;9.40;;;20.80;99.90;;;;;;5157778;27;20259;-84
2022/11/02 13:22:11;;;;;;;9.80;9.50;;;20.50;99.90;;;;;;5155662;27;20253;-84
2022/11/02 13:24:46;;;;;;;10.25;9.95;;;20.60;99.90;;;;;;5158121;27;20313;-85
2022/11/02 13:27:27;;;;;;;10.25;9.95;;;20.30;99.90;;;;;;5157937;27;20247;-85
2022/11/02 13:30:02;;;;;;;10.20;9.90;;;20.50;99.90;;;;;;5159315;27;20200;-85
2022/11/02 13:32:42;;;;;;;10.27;9.98;;;21.00;99.90;;;;;;5140970;27;20205;-86
2022/11/02 13:35:19;;;;;;;10.40;10.10;;;20.70;99.90;;;;;;5140840;27;20251;-85
2022/11/02 13:37:51;;;;;;;10.20;9.90;;;20.30;99.90;;;;;;5135419;28;20212;-85
2022/11/02 13:40:26;;;;;;;10.30;10.00;;;20.60;99.90;;;;;;5133564;28;20217;-85
2022/11/02 13:43:22;;;;;;;10.60;10.30;;;21.00;99.90;;;;;;5136900;28;20251;-85
2022/11/02 13:46:27;;;;;;;10.27;9.98;;;21.10;99.90;;;;;;5137953;28;20217;-85
2022/11/02 13:49:01;;;;;;;10.25;9.95;;;21.10;99.90;;;;;;5135927;27;20213;-86
2022/11/02 13:51:37;;;;;;;9.85;9.55;;;21.10;99.90;;;;;;5136717;28;20209;-86
2022/11/02 13:54:15;;;;;;;9.93;9.63;;;20.90;99.90;;;;;;5137211;28;20232;-86
2022/11/02 13:56:47;;;;;;;10.10;9.80;;;20.90;99.90;;;;;;5136828;27;20225;-85
2022/11/02 13:59:23;;;;;;;9.80;9.50;;;21.10;99.90;;;;;;5153032;27;20248;-84
2022/11/02 14:02:00;;;;;;;10.20;9.90;;;20.60;99.90;;;;;;5160242;27;20417;-83
2022/11/02 14:04:30;;;;;;;10.35;10.05;;;20.50;99.90;;;;;;5160938;27;20228;-84
2022/11/02 14:07:07;;;;;;;10.65;10.35;;;20.50;99.90;;;;;;5161015;27;20288;-84
2022/11/02 14:09:41;;;;;;;10.65;10.35;;;20.70;99.90;;;;;;5160147;27;20283;-84
2022/11/02 14:12:31;;;;;;;10.05;9.75;;;20.80;99.90;;;;;;5160788;27;20275;-84
2022/11/02 14:15:56;;;;;;;10.48;10.18;;;20.90;99.90;;;;;;5151345;27;20251;-83
2022/11/02 14:18:32;;;;;;;10.20;9.90;;;21.00;99.90;;;;;;5138316;28;20225;-83
2022/11/02 14:21:35;;;;;;;10.38;10.07;;;21.20;99.90;;;;;;5138645;28;20234;-84
2022/11/02 14:24:54;;;;;;;9.90;9.60;;;21.30;99.90;;;;;;5138749;27;20225;-86
2022/11/02 14:27:31;;;;;;;9.52;9.23;;;21.70;99.90;;;;;;5132380;28;20237;-83
2022/11/02 14:29:59;;;;;;;9.48;9.18;;;22.00;99.90;;;;;;5133353;28;20228;-83
2022/11/02 14:32:58;;;;;;;9.40;9.10;;;21.90;99.90;;;;;;5134194;27;20239;-82
2022/11/02 14:35:44;;;;;;;9.50;9.20;;;22.10;99.90;;;;;;5122279;28;20228;-86
2022/11/02 14:38:47;;;;;;;9.80;9.50;;;22.40;99.90;;;;;;5133182;28;20228;-85
2022/11/02 14:41:39;;;;;;;9.90;9.60;;;22.30;99.90;;;;;;5129757;27;20247;-83
2022/11/02 14:44:39;;;;;;;10.00;9.70;;;22.10;99.90;;;;;;5136186;27;20248;-82
2022/11/02 14:47:09;;;;;;;10.60;10.30;;;21.60;99.90;;;;;;5136289;28;20220;-83
2022/11/02 14:49:42;;;;;;;10.45;10.15;;;21.70;99.90;;;;;;5129534;28;20245;-83
2022/11/02 14:52:26;;;;;;;10.30;10.00;;;21.70;99.90;;;;;;5131294;28;20221;-83
2022/11/02 14:55:02;;;;;;;9.80;9.50;;;21.40;99.90;;;;;;5130510;28;20235;-82
2022/11/02 14:57:36;;;;;;;9.80;9.50;;;20.60;99.90;;;;;;5130023;28;20252;-81
2022/11/02 15:00:18;;;;;;;9.60;9.30;;;19.60;99.90;;;;;;5129586;28;20241;-81
2022/11/02 15:02:46;;;;;;;9.70;9.40;;;18.90;99.90;;;;;;5129165;27;20711;-81
2022/11/02 15:05:26;;;;;;;9.45;9.15;;;18.40;99.90;;;;;;5130946;27;20224;-81
2022/11/02 15:07:58;;;;;;;9.43;9.13;;;17.90;99.90;;;;;;5129304;27;20275;-82
2022/11/02 15:10:49;;;;;;;9.50;9.20;;;17.50;99.90;;;;;;5129567;28;20259;-81
2022/11/02 15:13:48;;;;;;;9.70;9.40;;;17.20;99.90;;;;;;5109263;27;20236;-81
2022/11/02 15:16:24;;;;;;;9.50;9.20;;;17.00;99.90;;;;;;5129976;28;20316;-81
2022/11/02 15:18:54;;;;;;;9.40;9.10;;;16.80;99.90;;;;;;5129716;28;20216;-82
2022/11/02 15:21:27;;;;;;;9.00;8.80;;;16.70;99.90;;;;;;5130831;28;20256;-81
2022/11/02 15:24:16;;;;;;;9.00;8.80;;;16.60;99.90;;;;;;5129417;27;20264;-81
2022/11/02 15:26:51;;;;;;;8.95;8.75;;;16.30;99.90;;;;;;5128348;28;20228;-81
2022/11/02 15:29:39;;;;;;;9.48;9.18;;;16.20;99.90;;;;;;5129918;28;20220;-82
2022/11/02 15:32:14;;;;;;;9.43;9.13;;;16.00;99.90;;;;;;5130671;28;20278;-82
2022/11/02 15:34:44;;;;;;;9.30;9.00;;;15.90;99.90;;;;;;5127081;27;20254;-83
2022/11/02 15:37:19;;;;;;;9.43;9.13;;;15.70;99.90;;;;;;5129723;28;20212;-83
2022/11/02 15:39:51;;;;;;;9.00;8.80;;;15.60;99.90;;;;;;5133458;28;20235;-83
2022/11/02 15:42:32;;;;;;;9.00;8.80;;;15.40;99.90;;;;;;5129782;27;20225;-83
2022/11/02 15:45:29;;;;;;;9.00;8.80;;;15.20;99.90;;;;;;5128304;28;20240;-83
2022/11/02 15:48:08;;;;;;;9.00;8.80;;;15.00;99.90;;;;;;5145011;27;20253;-83
2022/11/02 15:50:51;;;;;;;8.77;8.57;;;14.90;99.90;;;;;;5140775;27;20231;-82
2022/11/02 15:53:43;;;;;;;8.93;8.73;;;14.70;99.90;;;;;;5134916;27;20242;-82
2022/11/02 15:56:35;;;;;;;8.67;8.47;;;14.40;99.90;;;;;;5143211;27;20254;-82
2022/11/02 15:59:28;;;;;;;8.80;8.60;;;14.30;99.90;;;;;;5143352;27;20323;-82
2022/11/02 16:02:21;;;;;;;8.33;8.13;;;14.20;99.90;;;;;;5122526;28;20327;-81
2022/11/02 16:04:51;;;;;;;8.50;8.30;;;14.10;99.90;;;;;;5130208;27;20281;-82
2022/11/02 16:07:20;;;;;;;8.00;7.80;;;14.10;99.90;;;;;;5141113;27;20221;-82
2022/11/02 16:09:47;;;;;;;8.40;8.20;;;14.00;99.90;;;;;;5140806;27;20209;-82
2022/11/02 16:12:18;;;;;;;7.60;7.40;;;13.90;99.90;;;;;;5140430;27;20231;-82
2022/11/02 16:14:52;;;;;;;7.53;7.33;;;13.80;99.90;;;;;;5134450;28;20228;-82
2022/11/02 16:17:24;;;;;;;7.95;7.75;;;13.70;99.90;;;;;;5123568;27;20410;-80